createdAt,value
2022-10-13T00:05:02.628Z,4.0406
2022-10-13T00:10:14.777Z,4.0406
2022-10-13T00:15:26.715Z,4.0406
2022-10-13T00:25:50.820Z,4.0455
2022-10-13T00:31:02.805Z,4.0406
2022-10-13T00:36:14.709Z,4.0406
2022-10-13T00:41:26.922Z,4.0455
2022-10-13T00:57:02.936Z,4.0406
2022-10-13T01:02:14.848Z,4.0309
2022-10-13T01:07:26.911Z,4.0309
2022-10-13T01:17:50.829Z,4.0309
2022-10-13T01:23:02.831Z,4.0309
2022-10-13T01:28:15.517Z,4.0309
2022-10-13T01:33:27.420Z,4.0309
2022-10-13T01:43:51.703Z,4.0309
2022-10-13T01:49:03.850Z,4.026
2022-10-13T01:54:15.868Z,4.026
2022-10-13T01:59:28.030Z,4.026
2022-10-13T02:09:54.670Z,4.026
2022-10-13T02:15:05.937Z,4.026
2022-10-13T02:20:17.750Z,4.026
2022-10-13T02:25:29.629Z,4.026
2022-10-13T02:35:53.776Z,4.026
2022-10-13T02:41:05.728Z,4.0211
2022-10-13T02:46:17.777Z,4.0309
2022-10-13T02:51:29.709Z,4.0211
2022-10-13T02:56:41.689Z,4.0211
2022-10-13T03:01:53.940Z,4.0309
2022-10-13T03:07:05.646Z,4.0211
2022-10-13T03:12:19.707Z,4.0211
2022-10-13T03:22:50.701Z,4.0211
2022-10-13T03:28:01.560Z,4.0211
2022-10-13T03:33:13.563Z,4.0211
2022-10-13T03:38:25.529Z,4.0211
2022-10-13T03:48:49.644Z,4.0211
2022-10-13T03:54:01.398Z,4.0211
2022-10-13T03:59:13.299Z,4.0211
2022-10-13T04:04:25.252Z,4.0211
2022-10-13T04:14:48.958Z,4.0211
2022-10-13T04:20:01.091Z,4.0162
2022-10-13T04:25:13.060Z,4.0211
2022-10-13T04:30:25.019Z,4.0162
2022-10-13T04:40:48.739Z,4.0162
2022-10-13T04:46:00.599Z,4.0162
2022-10-13T04:51:12.492Z,4.0162
2022-10-13T04:56:24.122Z,4.0162
2022-10-13T05:07:21.142Z,4.0162
2022-10-13T05:12:27.982Z,4.0162
2022-10-13T05:22:51.440Z,4.0162
2022-10-13T05:28:03.142Z,4.0162
2022-10-13T05:33:15.115Z,4.0162
2022-10-13T05:38:27.266Z,4.0114
2022-10-13T05:48:50.613Z,4.0114
2022-10-13T05:54:02.437Z,4.0162
2022-10-13T05:59:14.213Z,4.0114
2022-10-13T06:04:35.420Z,4.0114
2022-10-13T06:09:48.822Z,4.0114
2022-10-13T06:15:00.480Z,4.0114
2022-10-13T06:20:12.261Z,4.0114
2022-10-13T06:25:24.195Z,4.0162
2022-10-13T06:35:48.381Z,4.0114
2022-10-13T06:41:00.308Z,4.0114
2022-10-13T06:46:12.460Z,4.0114
2022-10-13T06:51:24.365Z,4.0114
2022-10-13T07:01:48.331Z,4.0114
2022-10-13T07:07:00.094Z,4.0114
2022-10-13T07:12:12.059Z,4.0114
2022-10-13T07:17:24.290Z,4.0162
2022-10-13T07:27:48.275Z,4.0114
2022-10-13T07:32:59.982Z,4.0114
2022-10-13T07:38:12.040Z,4.0114
2022-10-13T07:43:24.276Z,4.0114
2022-10-13T07:53:48.149Z,4.0162
2022-10-13T07:59:00.425Z,4.0114
2022-10-13T08:04:12.403Z,4.0114
2022-10-13T08:09:24.623Z,4.0114
2022-10-13T08:19:49.232Z,4.0162
2022-10-13T08:25:01.462Z,4.0114
2022-10-13T08:30:14.246Z,4.0114
2022-10-13T08:35:26.163Z,4.0114
2022-10-13T08:45:50.547Z,4.0114
2022-10-13T08:51:02.763Z,4.0114
2022-10-13T08:56:14.902Z,4.0114
2022-10-13T09:01:27.440Z,4.0162
2022-10-13T09:06:39.522Z,4.0114
2022-10-13T09:11:51.693Z,4.0114
2022-10-13T09:17:04.463Z,4.0114
2022-10-13T09:22:16.965Z,4.0114
2022-10-13T09:27:28.993Z,4.0114
2022-10-13T09:37:53.445Z,4.0114
2022-10-13T09:43:05.784Z,4.0114
2022-10-13T09:48:18.417Z,4.0114
2022-10-13T09:53:30.465Z,4.0114
2022-10-13T10:03:55.753Z,4.0114
2022-10-13T10:09:08.149Z,4.0114
2022-10-13T10:14:20.198Z,4.0114
2022-10-13T10:19:32.391Z,4.0211
2022-10-13T10:29:57.078Z,4.0114
2022-10-13T10:35:10.102Z,4.0114
2022-10-13T10:40:22.177Z,4.0162
2022-10-13T10:45:34.619Z,4.0114
2022-10-13T10:55:59.178Z,4.0114
2022-10-13T11:01:11.959Z,4.0114
2022-10-13T11:06:24.367Z,4.0162
2022-10-13T11:11:38.898Z,4.0894
2022-10-13T11:16:53.946Z,4.1138
2022-10-13T11:22:08.354Z,4.1236
2022-10-13T11:27:24.708Z,4.1236
2022-10-13T11:32:39.124Z,4.1285
2022-10-13T11:43:09.545Z,4.1382
2022-10-13T11:48:25.520Z,4.1431
2022-10-13T11:53:38.485Z,4.1578
2022-10-13T11:58:50.926Z,4.1724
2022-10-13T12:19:35.959Z,4.1138
2022-10-13T12:29:59.092Z,4.1919
2022-10-13T12:35:12.208Z,4.1431
2022-10-13T13:27:03.521Z,4.1626
2022-10-13T13:32:18.138Z,4.1724
2022-10-13T14:18:55.220Z,4.1431
2022-10-13T14:24:07.157Z,4.148
2022-10-13T14:29:19.259Z,4.1382
2022-10-13T14:34:31.510Z,4.1334
2022-10-13T14:44:55.921Z,4.1382
2022-10-13T14:50:08.325Z,4.1285
2022-10-13T15:00:30.817Z,4.1285
2022-10-13T15:16:04.606Z,4.1334
2022-10-13T15:21:16.856Z,4.1334
2022-10-13T15:52:21.300Z,4.1236
2022-10-13T16:02:55.103Z,4.1236
2022-10-13T16:08:06.120Z,4.1187
2022-10-13T16:13:17.991Z,4.1187
2022-10-13T16:28:50.446Z,4.109
2022-10-13T16:34:02.510Z,4.109
2022-10-13T16:39:14.577Z,4.109
2022-10-13T16:49:36.853Z,4.1041
2022-10-13T17:00:01.156Z,4.1041
2022-10-13T17:05:13.281Z,4.0992
2022-10-13T17:10:25.463Z,4.0992
2022-10-13T17:15:37.556Z,4.1041
2022-10-13T17:26:01.875Z,4.1041
2022-10-13T17:31:14.093Z,4.0894
2022-10-13T17:36:26.347Z,4.0894
2022-10-13T17:41:38.537Z,4.0894
2022-10-13T17:52:03.541Z,4.0992
2022-10-13T17:57:15.565Z,4.0846
2022-10-13T18:02:27.552Z,4.0846
2022-10-13T18:07:39.872Z,4.0797
2022-10-13T18:12:52.108Z,4.0797
2022-10-13T18:18:04.218Z,4.0797
2022-10-13T18:23:21.376Z,4.0797
2022-10-13T18:28:34.218Z,4.0748
2022-10-13T18:38:58.211Z,4.0748
2022-10-13T18:44:10.284Z,4.0748
2022-10-13T18:49:34.927Z,4.0797
2022-10-13T18:59:57.323Z,4.0699
2022-10-13T19:05:09.434Z,4.0699
2022-10-13T19:10:21.626Z,4.0699
2022-10-13T19:15:33.693Z,4.0699
2022-10-13T19:26:16.039Z,4.0748
2022-10-13T19:31:25.913Z,4.0699
2022-10-13T19:36:37.943Z,4.065
2022-10-13T19:47:02.032Z,4.065
2022-10-13T19:52:14.063Z,4.065
2022-10-13T19:57:26.275Z,4.0602
2022-10-13T20:02:38.492Z,4.0602
2022-10-13T20:07:50.832Z,4.0602
2022-10-13T20:13:03.013Z,4.0602
2022-10-13T20:18:15.054Z,4.0602
2022-10-13T20:23:27.255Z,4.0602
2022-10-13T20:34:00.387Z,4.0553
2022-10-13T20:39:12.457Z,4.0602
2022-10-13T20:44:25.482Z,4.0553
2022-10-13T20:49:37.256Z,4.0602
2022-10-13T21:00:01.303Z,4.0553
2022-10-13T21:05:13.384Z,4.0553
2022-10-13T21:10:25.327Z,4.0553
2022-10-13T21:15:37.555Z,4.0553
2022-10-13T21:26:01.187Z,4.0553
2022-10-13T21:31:12.841Z,4.0504
2022-10-13T21:36:24.778Z,4.0504
2022-10-13T21:41:36.676Z,4.0504
2022-10-13T21:52:00.395Z,4.0504
2022-10-13T22:07:53.791Z,4.0504
2022-10-13T22:13:05.453Z,4.0504
2022-10-13T22:18:17.531Z,4.0455
2022-10-13T22:23:29.203Z,4.0455
2022-10-13T22:39:06.139Z,4.0455
2022-10-13T22:44:17.942Z,4.0455
2022-10-13T22:49:29.810Z,4.0455
2022-10-13T22:54:41.718Z,4.0455
2022-10-13T22:59:53.689Z,4.0455
2022-10-13T23:05:05.819Z,4.0455
2022-10-13T23:10:17.646Z,4.0406
2022-10-13T23:15:29.384Z,4.0406
2022-10-13T23:31:04.784Z,4.0455
2022-10-13T23:36:16.798Z,4.0406
2022-10-13T23:41:28.633Z,4.0406
2022-10-13T23:46:40.355Z,4.0455
2022-10-13T23:51:52.212Z,4.0406
2022-10-13T23:57:04.066Z,4.0406
